sensor_id;sensor_type;location;lat;lon;timestamp;pressure;altitude;pressure_sealevel;temperature;humidity
17230;BME280;8731;50.364;8.958;2023-08-21T00:00:59;100578.56;;;23.60;83.35
17230;BME280;8731;50.364;8.958;2023-08-21T00:05:23;100582.97;;;23.80;80.31
17230;BME280;8731;50.364;8.958;2023-08-21T00:09:45;100575.88;;;23.76;80.88
17230;BME280;8731;50.364;8.958;2023-08-21T00:14:08;100573.53;;;23.45;84.12
17230;BME280;8731;50.364;8.958;2023-08-21T00:18:31;100575.00;;;23.58;81.77
17230;BME280;8731;50.364;8.958;2023-08-21T00:22:55;100568.28;;;23.63;80.89
17230;BME280;8731;50.364;8.958;2023-08-21T00:27:18;100567.47;;;23.64;80.51
17230;BME280;8731;50.364;8.958;2023-08-21T00:31:40;100569.22;;;23.46;82.28
17230;BME280;8731;50.364;8.958;2023-08-21T00:36:03;100567.25;;;23.42;82.40
17230;BME280;8731;50.364;8.958;2023-08-21T00:40:27;100564.00;;;23.46;81.08
17230;BME280;8731;50.364;8.958;2023-08-21T00:44:50;100566.53;;;23.44;81.72
17230;BME280;8731;50.364;8.958;2023-08-21T00:49:14;100557.09;;;23.46;80.70
17230;BME280;8731;50.364;8.958;2023-08-21T00:53:37;100559.31;;;23.39;81.26
17230;BME280;8731;50.364;8.958;2023-08-21T00:58:01;100563.47;;;23.17;83.57
17230;BME280;8731;50.364;8.958;2023-08-21T01:02:25;100566.25;;;23.20;82.75
17230;BME280;8731;50.364;8.958;2023-08-21T01:06:49;100564.81;;;23.09;83.39
17230;BME280;8731;50.364;8.958;2023-08-21T01:11:15;100563.19;;;22.93;84.69
17230;BME280;8731;50.364;8.958;2023-08-21T01:15:45;100574.13;;;23.04;83.08
17230;BME280;8731;50.364;8.958;2023-08-21T01:20:09;100574.25;;;23.07;81.91
17230;BME280;8731;50.364;8.958;2023-08-21T01:24:34;100578.53;;;22.89;84.01
17230;BME280;8731;50.364;8.958;2023-08-21T01:28:56;100579.78;;;22.63;86.82
17230;BME280;8731;50.364;8.958;2023-08-21T01:33:19;100584.13;;;22.80;84.19
17230;BME280;8731;50.364;8.958;2023-08-21T01:37:44;100593.88;;;22.68;85.20
17230;BME280;8731;50.364;8.958;2023-08-21T01:42:08;100589.59;;;22.68;85.07
17230;BME280;8731;50.364;8.958;2023-08-21T01:46:31;100595.56;;;22.50;87.22
17230;BME280;8731;50.364;8.958;2023-08-21T01:50:53;100593.00;;;22.67;84.55
17230;BME280;8731;50.364;8.958;2023-08-21T01:55:16;100588.47;;;22.47;86.53
17230;BME280;8731;50.364;8.958;2023-08-21T01:59:40;100589.13;;;22.59;85.05
17230;BME280;8731;50.364;8.958;2023-08-21T02:04:03;100593.13;;;22.20;89.55
17230;BME280;8731;50.364;8.958;2023-08-21T02:08:30;100602.78;;;22.55;85.12
17230;BME280;8731;50.364;8.958;2023-08-21T02:12:54;100605.44;;;22.41;87.30
17230;BME280;8731;50.364;8.958;2023-08-21T02:17:17;100603.09;;;22.45;86.27
17230;BME280;8731;50.364;8.958;2023-08-21T02:21:40;100595.16;;;22.42;86.25
17230;BME280;8731;50.364;8.958;2023-08-21T02:26:02;100602.78;;;22.39;86.21
17230;BME280;8731;50.364;8.958;2023-08-21T02:30:26;100600.75;;;22.17;88.77
17230;BME280;8731;50.364;8.958;2023-08-21T02:34:52;100607.09;;;22.06;89.49
17230;BME280;8731;50.364;8.958;2023-08-21T02:39:15;100603.13;;;22.29;85.64
17230;BME280;8731;50.364;8.958;2023-08-21T02:43:37;100604.72;;;22.11;88.23
17230;BME280;8731;50.364;8.958;2023-08-21T02:48:00;100604.56;;;22.24;85.90
17230;BME280;8731;50.364;8.958;2023-08-21T02:52:23;100608.47;;;22.16;86.85
17230;BME280;8731;50.364;8.958;2023-08-21T02:56:46;100600.34;;;22.10;87.65
17230;BME280;8731;50.364;8.958;2023-08-21T03:01:08;100601.75;;;21.88;89.99
17230;BME280;8731;50.364;8.958;2023-08-21T03:05:33;100591.94;;;21.99;87.93
17230;BME280;8731;50.364;8.958;2023-08-21T03:09:59;100597.34;;;22.02;86.88
17230;BME280;8731;50.364;8.958;2023-08-21T03:14:22;100596.63;;;22.04;85.92
17230;BME280;8731;50.364;8.958;2023-08-21T03:18:54;100599.84;;;22.00;86.43
17230;BME280;8731;50.364;8.958;2023-08-21T03:23:19;100599.91;;;21.86;87.90
17230;BME280;8731;50.364;8.958;2023-08-21T03:27:46;100603.88;;;21.79;88.70
17230;BME280;8731;50.364;8.958;2023-08-21T03:32:09;100599.94;;;21.71;89.25
17230;BME280;8731;50.364;8.958;2023-08-21T03:36:32;100603.19;;;21.67;89.82
17230;BME280;8731;50.364;8.958;2023-08-21T03:40:57;100604.72;;;21.63;89.58
17230;BME280;8731;50.364;8.958;2023-08-21T03:45:22;100607.88;;;21.74;88.13
17230;BME280;8731;50.364;8.958;2023-08-21T03:49:49;100612.47;;;21.78;86.63
17230;BME280;8731;50.364;8.958;2023-08-21T03:54:12;100609.59;;;21.73;87.62
17230;BME280;8731;50.364;8.958;2023-08-21T03:58:35;100611.59;;;21.63;88.33
17230;BME280;8731;50.364;8.958;2023-08-21T04:03:00;100610.56;;;21.44;90.30
17230;BME280;8731;50.364;8.958;2023-08-21T04:07:23;100619.47;;;21.50;88.66
17230;BME280;8731;50.364;8.958;2023-08-21T04:11:45;100626.66;;;21.54;87.69
17230;BME280;8731;50.364;8.958;2023-08-21T04:16:08;100621.72;;;21.43;88.60
17230;BME280;8731;50.364;8.958;2023-08-21T04:20:32;100628.81;;;21.17;92.35
17230;BME280;8731;50.364;8.958;2023-08-21T04:24:55;100627.38;;;21.07;92.81
17230;BME280;8731;50.364;8.958;2023-08-21T04:29:17;100626.13;;;21.00;93.36
17230;BME280;8731;50.364;8.958;2023-08-21T04:33:40;100621.28;;;21.21;90.26
17230;BME280;8731;50.364;8.958;2023-08-21T04:38:04;100620.06;;;21.29;88.76
17230;BME280;8731;50.364;8.958;2023-08-21T04:42:27;100625.59;;;21.35;87.81
17230;BME280;8731;50.364;8.958;2023-08-21T04:46:50;100640.22;;;21.20;90.78
17230;BME280;8731;50.364;8.958;2023-08-21T04:51:13;100626.41;;;21.34;88.26
17230;BME280;8731;50.364;8.958;2023-08-21T04:55:39;100641.03;;;21.19;90.67
17230;BME280;8731;50.364;8.958;2023-08-21T05:00:03;100638.63;;;21.22;90.67
17230;BME280;8731;50.364;8.958;2023-08-21T05:04:31;100638.63;;;21.22;91.32
17230;BME280;8731;50.364;8.958;2023-08-21T05:08:54;100636.66;;;21.18;92.28
17230;BME280;8731;50.364;8.958;2023-08-21T05:13:18;100636.06;;;21.37;89.31
17230;BME280;8731;50.364;8.958;2023-08-21T05:17:41;100638.09;;;21.13;94.11
17230;BME280;8731;50.364;8.958;2023-08-21T05:22:05;100639.69;;;21.40;90.17
17230;BME280;8731;50.364;8.958;2023-08-21T05:26:29;100643.78;;;21.52;89.93
17230;BME280;8731;50.364;8.958;2023-08-21T05:30:53;100652.66;;;21.55;91.73
17230;BME280;8731;50.364;8.958;2023-08-21T05:35:16;100643.59;;;21.49;94.29
17230;BME280;8731;50.364;8.958;2023-08-21T05:39:39;100653.59;;;22.19;90.17
17230;BME280;8731;50.364;8.958;2023-08-21T05:44:02;100653.53;;;22.99;88.50
17230;BME280;8731;50.364;8.958;2023-08-21T05:48:27;100658.78;;;23.52;85.77
17230;BME280;8731;50.364;8.958;2023-08-21T05:52:50;100646.00;;;23.93;86.10
17230;BME280;8731;50.364;8.958;2023-08-21T05:57:15;100651.63;;;24.39;83.96
17230;BME280;8731;50.364;8.958;2023-08-21T06:01:38;100650.13;;;25.45;80.26
17230;BME280;8731;50.364;8.958;2023-08-21T06:06:03;100648.06;;;26.26;77.99
17230;BME280;8731;50.364;8.958;2023-08-21T06:10:26;100646.28;;;26.25;75.53
17230;BME280;8731;50.364;8.958;2023-08-21T06:14:50;100645.56;;;26.75;73.95
17230;BME280;8731;50.364;8.958;2023-08-21T06:19:13;100657.22;;;27.36;74.22
17230;BME280;8731;50.364;8.958;2023-08-21T06:23:37;100654.97;;;27.46;71.36
17230;BME280;8731;50.364;8.958;2023-08-21T06:27:59;100659.69;;;28.13;70.91
17230;BME280;8731;50.364;8.958;2023-08-21T06:32:22;100663.28;;;27.62;71.41
17230;BME280;8731;50.364;8.958;2023-08-21T06:36:46;100662.09;;;27.50;69.51
17230;BME280;8731;50.364;8.958;2023-08-21T06:41:10;100665.78;;;28.72;68.65
17230;BME280;8731;50.364;8.958;2023-08-21T06:45:33;100656.28;;;29.09;67.10
17230;BME280;8731;50.364;8.958;2023-08-21T06:49:58;100653.28;;;29.28;66.26
17230;BME280;8731;50.364;8.958;2023-08-21T06:54:21;100659.16;;;29.53;64.08
17230;BME280;8731;50.364;8.958;2023-08-21T06:58:46;100648.22;;;30.52;63.35
17230;BME280;8731;50.364;8.958;2023-08-21T07:03:09;100650.75;;;29.68;61.66
17230;BME280;8731;50.364;8.958;2023-08-21T07:07:34;100650.06;;;30.14;61.49
17230;BME280;8731;50.364;8.958;2023-08-21T07:11:59;100649.56;;;30.75;59.82
17230;BME280;8731;50.364;8.958;2023-08-21T07:16:25;100649.19;;;30.55;59.82
17230;BME280;8731;50.364;8.958;2023-08-21T07:20:48;100645.75;;;31.59;60.54
17230;BME280;8731;50.364;8.958;2023-08-21T07:25:13;100645.75;;;31.59;57.63
17230;BME280;8731;50.364;8.958;2023-08-21T07:29:38;100647.00;;;32.46;56.15
17230;BME280;8731;50.364;8.958;2023-08-21T07:34:02;100647.97;;;32.57;56.71
17230;BME280;8731;50.364;8.958;2023-08-21T07:38:24;100650.63;;;33.45;54.28
17230;BME280;8731;50.364;8.958;2023-08-21T07:42:46;100647.13;;;33.51;52.94
17230;BME280;8731;50.364;8.958;2023-08-21T07:47:10;100645.75;;;34.11;56.24
17230;BME280;8731;50.364;8.958;2023-08-21T07:51:36;100649.56;;;33.30;57.53
17230;BME280;8731;50.364;8.958;2023-08-21T07:55:59;100645.66;;;33.90;55.50
17230;BME280;8731;50.364;8.958;2023-08-21T08:00:22;100645.81;;;34.26;53.13
17230;BME280;8731;50.364;8.958;2023-08-21T08:04:47;100649.44;;;34.48;53.79
17230;BME280;8731;50.364;8.958;2023-08-21T08:09:12;100643.41;;;35.05;52.33
17230;BME280;8731;50.364;8.958;2023-08-21T08:13:35;100642.53;;;35.45;51.29
17230;BME280;8731;50.364;8.958;2023-08-21T08:17:57;100634.56;;;35.00;50.45
17230;BME280;8731;50.364;8.958;2023-08-21T08:22:20;100640.78;;;35.37;50.25
17230;BME280;8731;50.364;8.958;2023-08-21T08:26:43;100636.25;;;34.63;50.17
17230;BME280;8731;50.364;8.958;2023-08-21T08:31:07;100638.06;;;35.77;48.46
17230;BME280;8731;50.364;8.958;2023-08-21T08:35:35;100638.13;;;35.37;48.32
17230;BME280;8731;50.364;8.958;2023-08-21T08:40:00;100634.56;;;35.23;48.29
17230;BME280;8731;50.364;8.958;2023-08-21T08:44:27;100633.22;;;36.80;50.74
17230;BME280;8731;50.364;8.958;2023-08-21T08:48:51;100635.47;;;35.36;48.10
17230;BME280;8731;50.364;8.958;2023-08-21T08:53:15;100628.69;;;36.91;46.05
17230;BME280;8731;50.364;8.958;2023-08-21T08:57:39;100630.44;;;37.00;47.17
17230;BME280;8731;50.364;8.958;2023-08-21T09:02:06;100627.53;;;35.41;46.95
17230;BME280;8731;50.364;8.958;2023-08-21T09:06:28;100626.63;;;35.52;47.11
17230;BME280;8731;50.364;8.958;2023-08-21T09:10:53;100620.72;;;36.91;45.74
17230;BME280;8731;50.364;8.958;2023-08-21T09:15:16;100625.69;;;37.37;46.82
17230;BME280;8731;50.364;8.958;2023-08-21T09:19:41;100622.28;;;37.21;46.93
17230;BME280;8731;50.364;8.958;2023-08-21T09:24:04;100614.06;;;36.23;45.86
17230;BME280;8731;50.364;8.958;2023-08-21T09:28:27;100606.81;;;37.64;46.47
17230;BME280;8731;50.364;8.958;2023-08-21T09:32:54;100606.75;;;36.62;45.63
17230;BME280;8731;50.364;8.958;2023-08-21T09:37:19;100608.13;;;37.19;45.05
17230;BME280;8731;50.364;8.958;2023-08-21T09:41:42;100608.94;;;37.29;45.01
17230;BME280;8731;50.364;8.958;2023-08-21T09:46:16;100603.66;;;37.26;46.11
17230;BME280;8731;50.364;8.958;2023-08-21T09:50:46;100598.88;;;37.60;46.76
17230;BME280;8731;50.364;8.958;2023-08-21T09:55:12;100602.66;;;37.40;46.28
17230;BME280;8731;50.364;8.958;2023-08-21T09:59:35;100604.53;;;38.06;43.65
17230;BME280;8731;50.364;8.958;2023-08-21T10:04:02;100592.00;;;38.20;45.08
17230;BME280;8731;50.364;8.958;2023-08-21T10:08:26;100592.00;;;38.20;44.15
17230;BME280;8731;50.364;8.958;2023-08-21T10:12:51;100589.63;;;37.08;44.06
17230;BME280;8731;50.364;8.958;2023-08-21T10:17:14;100583.84;;;38.91;46.21
17230;BME280;8731;50.364;8.958;2023-08-21T10:21:38;100587.19;;;37.77;44.23
17230;BME280;8731;50.364;8.958;2023-08-21T10:26:05;100589.38;;;39.31;44.29
17230;BME280;8731;50.364;8.958;2023-08-21T10:30:30;100574.00;;;38.37;44.66
17230;BME280;8731;50.364;8.958;2023-08-21T10:34:53;100584.03;;;38.77;43.74
17230;BME280;8731;50.364;8.958;2023-08-21T10:39:17;100580.53;;;39.29;42.60
17230;BME280;8731;50.364;8.958;2023-08-21T10:43:43;100579.06;;;40.04;43.75
17230;BME280;8731;50.364;8.958;2023-08-21T10:48:10;100573.59;;;39.67;42.74
17230;BME280;8731;50.364;8.958;2023-08-21T10:52:35;100580.16;;;39.92;42.92
17230;BME280;8731;50.364;8.958;2023-08-21T10:57:01;100572.16;;;38.98;39.77
17230;BME280;8731;50.364;8.958;2023-08-21T11:01:24;100569.97;;;38.04;42.16
17230;BME280;8731;50.364;8.958;2023-08-21T11:06:01;100567.53;;;39.58;41.25
17230;BME280;8731;50.364;8.958;2023-08-21T11:10:30;100574.53;;;39.16;40.56
17230;BME280;8731;50.364;8.958;2023-08-21T11:14:53;100566.56;;;39.63;40.08
17230;BME280;8731;50.364;8.958;2023-08-21T11:19:16;100572.97;;;39.97;39.41
17230;BME280;8731;50.364;8.958;2023-08-21T11:23:41;100561.09;;;40.52;37.21
17230;BME280;8731;50.364;8.958;2023-08-21T11:28:05;100564.41;;;40.23;37.93
17230;BME280;8731;50.364;8.958;2023-08-21T11:32:28;100560.69;;;40.30;38.71
17230;BME280;8731;50.364;8.958;2023-08-21T11:36:52;100554.22;;;40.77;38.63
17230;BME280;8731;50.364;8.958;2023-08-21T11:41:16;100563.44;;;39.85;38.35
17230;BME280;8731;50.364;8.958;2023-08-21T11:45:38;100563.50;;;39.82;38.99
17230;BME280;8731;50.364;8.958;2023-08-21T11:50:07;100565.41;;;38.77;39.31
17230;BME280;8731;50.364;8.958;2023-08-21T11:54:34;100558.75;;;39.03;36.68
17230;BME280;8731;50.364;8.958;2023-08-21T11:58:58;100549.38;;;38.23;38.71
17230;BME280;8731;50.364;8.958;2023-08-21T12:03:21;100550.69;;;38.52;39.00
17230;BME280;8731;50.364;8.958;2023-08-21T12:07:44;100551.31;;;37.32;38.23
17230;BME280;8731;50.364;8.958;2023-08-21T12:12:07;100545.97;;;38.12;40.27
17230;BME280;8731;50.364;8.958;2023-08-21T12:16:32;100553.81;;;36.43;38.71
17230;BME280;8731;50.364;8.958;2023-08-21T12:20:54;100544.81;;;36.64;40.53
17230;BME280;8731;50.364;8.958;2023-08-21T12:25:17;100545.09;;;37.35;39.28
17230;BME280;8731;50.364;8.958;2023-08-21T12:29:40;100540.63;;;36.31;39.66
17230;BME280;8731;50.364;8.958;2023-08-21T12:34:04;100546.97;;;36.01;40.02
17230;BME280;8731;50.364;8.958;2023-08-21T12:38:27;100538.31;;;35.53;39.70
17230;BME280;8731;50.364;8.958;2023-08-21T12:42:51;100543.66;;;34.66;41.14
17230;BME280;8731;50.364;8.958;2023-08-21T12:47:14;100530.13;;;36.10;42.45
17230;BME280;8731;50.364;8.958;2023-08-21T12:51:41;100523.16;;;35.89;41.55
17230;BME280;8731;50.364;8.958;2023-08-21T12:56:03;100522.44;;;35.24;40.71
17230;BME280;8731;50.364;8.958;2023-08-21T13:00:26;100519.63;;;35.87;41.40
17230;BME280;8731;50.364;8.958;2023-08-21T13:04:48;100524.19;;;35.53;42.66
17230;BME280;8731;50.364;8.958;2023-08-21T13:09:13;100514.47;;;35.43;42.28
17230;BME280;8731;50.364;8.958;2023-08-21T13:13:35;100518.00;;;35.45;43.50
17230;BME280;8731;50.364;8.958;2023-08-21T13:17:57;100521.53;;;35.50;42.16
17230;BME280;8731;50.364;8.958;2023-08-21T13:22:20;100522.50;;;35.09;42.57
17230;BME280;8731;50.364;8.958;2023-08-21T13:26:45;100516.22;;;35.47;43.34
17230;BME280;8731;50.364;8.958;2023-08-21T13:31:07;100506.56;;;35.17;42.68
17230;BME280;8731;50.364;8.958;2023-08-21T13:35:31;100501.25;;;35.36;43.08
17230;BME280;8731;50.364;8.958;2023-08-21T13:39:53;100507.47;;;34.99;43.31
17230;BME280;8731;50.364;8.958;2023-08-21T13:44:21;100499.53;;;34.77;41.85
17230;BME280;8731;50.364;8.958;2023-08-21T13:48:43;100496.88;;;35.11;42.43
17230;BME280;8731;50.364;8.958;2023-08-21T13:53:05;100496.81;;;35.42;42.47
17230;BME280;8731;50.364;8.958;2023-08-21T13:57:28;100490.72;;;35.01;41.97
17230;BME280;8731;50.364;8.958;2023-08-21T14:01:52;100492.44;;;34.26;42.44
17230;BME280;8731;50.364;8.958;2023-08-21T14:06:14;100479.25;;;34.40;43.48
17230;BME280;8731;50.364;8.958;2023-08-21T14:10:37;100474.00;;;34.55;43.59
17230;BME280;8731;50.364;8.958;2023-08-21T14:15:00;100468.41;;;33.54;42.96
17230;BME280;8731;50.364;8.958;2023-08-21T14:19:24;100461.53;;;33.96;43.97
17230;BME280;8731;50.364;8.958;2023-08-21T14:23:49;100459.69;;;33.83;43.35
17230;BME280;8731;50.364;8.958;2023-08-21T14:28:12;100455.41;;;34.26;43.86
17230;BME280;8731;50.364;8.958;2023-08-21T14:32:34;100454.50;;;33.98;44.68
17230;BME280;8731;50.364;8.958;2023-08-21T14:36:59;100455.19;;;33.42;44.26
17230;BME280;8731;50.364;8.958;2023-08-21T14:41:24;100450.88;;;33.73;43.82
17230;BME280;8731;50.364;8.958;2023-08-21T14:45:47;100444.81;;;33.94;44.57
17230;BME280;8731;50.364;8.958;2023-08-21T14:50:09;100439.50;;;33.99;45.13
17230;BME280;8731;50.364;8.958;2023-08-21T14:54:34;100435.09;;;33.84;44.71
17230;BME280;8731;50.364;8.958;2023-08-21T14:58:57;100435.97;;;33.84;45.35
17230;BME280;8731;50.364;8.958;2023-08-21T15:03:19;100425.34;;;33.71;45.38
17230;BME280;8731;50.364;8.958;2023-08-21T15:07:42;100423.56;;;33.71;44.91
17230;BME280;8731;50.364;8.958;2023-08-21T15:12:08;100427.97;;;33.68;44.81
17230;BME280;8731;50.364;8.958;2023-08-21T15:16:31;100427.88;;;33.43;44.33
17230;BME280;8731;50.364;8.958;2023-08-21T15:20:54;100418.97;;;33.26;44.38
17230;BME280;8731;50.364;8.958;2023-08-21T15:25:17;100400.75;;;33.93;45.15
17230;BME280;8731;50.364;8.958;2023-08-21T15:29:42;100398.91;;;33.83;43.94
17230;BME280;8731;50.364;8.958;2023-08-21T15:34:05;100391.94;;;33.97;45.83
17230;BME280;8731;50.364;8.958;2023-08-21T15:38:28;100392.81;;;33.96;45.11
17230;BME280;8731;50.364;8.958;2023-08-21T15:42:51;100394.59;;;34.09;46.02
17230;BME280;8731;50.364;8.958;2023-08-21T15:47:17;100388.41;;;33.86;45.18
17230;BME280;8731;50.364;8.958;2023-08-21T15:51:41;100388.34;;;33.60;45.52
17230;BME280;8731;50.364;8.958;2023-08-21T15:56:07;100383.81;;;33.33;46.00
17230;BME280;8731;50.364;8.958;2023-08-21T16:00:29;100383.06;;;33.72;44.78
17230;BME280;8731;50.364;8.958;2023-08-21T16:04:53;100374.25;;;33.79;44.87
17230;BME280;8731;50.364;8.958;2023-08-21T16:09:16;100374.75;;;32.82;45.80
17230;BME280;8731;50.364;8.958;2023-08-21T16:13:39;100365.38;;;33.44;45.21
17230;BME280;8731;50.364;8.958;2023-08-21T16:18:02;100360.13;;;33.51;45.72
17230;BME280;8731;50.364;8.958;2023-08-21T16:22:27;100361.81;;;33.36;45.71
17230;BME280;8731;50.364;8.958;2023-08-21T16:26:49;100353.81;;;33.16;46.06
17230;BME280;8731;50.364;8.958;2023-08-21T16:31:14;100353.84;;;33.22;45.89
17230;BME280;8731;50.364;8.958;2023-08-21T16:35:37;100344.94;;;32.92;45.61
17230;BME280;8731;50.364;8.958;2023-08-21T16:40:01;100345.97;;;33.34;45.94
17230;BME280;8731;50.364;8.958;2023-08-21T16:44:25;100338.00;;;33.17;46.02
17230;BME280;8731;50.364;8.958;2023-08-21T16:48:48;100346.91;;;33.42;45.94
17230;BME280;8731;50.364;8.958;2023-08-21T16:53:12;100337.91;;;32.94;45.69
17230;BME280;8731;50.364;8.958;2023-08-21T16:57:36;100336.22;;;33.18;48.20
17230;BME280;8731;50.364;8.958;2023-08-21T17:01:59;100331.84;;;33.29;46.73
17230;BME280;8731;50.364;8.958;2023-08-21T17:06:22;100339.78;;;33.26;48.22
17230;BME280;8731;50.364;8.958;2023-08-21T17:10:45;100330.06;;;33.14;47.91
17230;BME280;8731;50.364;8.958;2023-08-21T17:15:11;100338.81;;;33.12;47.97
17230;BME280;8731;50.364;8.958;2023-08-21T17:19:35;100331.75;;;32.94;48.44
17230;BME280;8731;50.364;8.958;2023-08-21T17:23:58;100341.34;;;32.84;48.68
17230;BME280;8731;50.364;8.958;2023-08-21T17:28:22;100338.72;;;32.86;50.63
17230;BME280;8731;50.364;8.958;2023-08-21T17:32:46;100331.63;;;32.79;51.16
17230;BME280;8731;50.364;8.958;2023-08-21T17:37:08;100332.53;;;32.79;51.82
17230;BME280;8731;50.364;8.958;2023-08-21T17:41:30;100341.16;;;32.54;51.52
17230;BME280;8731;50.364;8.958;2023-08-21T17:45:53;100336.75;;;32.50;51.46
17230;BME280;8731;50.364;8.958;2023-08-21T17:50:17;100342.75;;;32.27;52.05
17230;BME280;8731;50.364;8.958;2023-08-21T17:54:39;100352.34;;;32.25;52.09
17230;BME280;8731;50.364;8.958;2023-08-21T17:59:02;100346.03;;;32.02;53.14
17230;BME280;8731;50.364;8.958;2023-08-21T18:03:24;100350.91;;;31.65;53.25
17230;BME280;8731;50.364;8.958;2023-08-21T18:07:48;100350.22;;;31.09;55.24
17230;BME280;8731;50.364;8.958;2023-08-21T18:12:10;100351.53;;;30.75;55.90
17230;BME280;8731;50.364;8.958;2023-08-21T18:16:33;100366.00;;;31.06;54.62
17230;BME280;8731;50.364;8.958;2023-08-21T18:20:56;100354.38;;;30.90;54.48
17230;BME280;8731;50.364;8.958;2023-08-21T18:25:20;100349.88;;;30.80;54.80
17230;BME280;8731;50.364;8.958;2023-08-21T18:29:42;100358.75;;;30.91;54.07
17230;BME280;8731;50.364;8.958;2023-08-21T18:34:04;100357.38;;;30.55;55.59
17230;BME280;8731;50.364;8.958;2023-08-21T18:38:27;100363.41;;;30.51;55.47
17230;BME280;8731;50.364;8.958;2023-08-21T18:42:52;100372.97;;;30.46;55.22
17230;BME280;8731;50.364;8.958;2023-08-21T18:47:14;100381.38;;;30.24;56.04
17230;BME280;8731;50.364;8.958;2023-08-21T18:51:37;100376.28;;;30.32;55.26
17230;BME280;8731;50.364;8.958;2023-08-21T18:55:59;100388.50;;;30.30;55.21
17230;BME280;8731;50.364;8.958;2023-08-21T19:00:24;100383.88;;;30.15;55.75
17230;BME280;8731;50.364;8.958;2023-08-21T19:04:46;100391.25;;;29.89;56.71
17230;BME280;8731;50.364;8.958;2023-08-21T19:09:09;100405.00;;;29.76;57.23
17230;BME280;8731;50.364;8.958;2023-08-21T19:13:31;100401.13;;;29.55;57.92
17230;BME280;8731;50.364;8.958;2023-08-21T19:17:56;100402.81;;;29.52;58.34
17230;BME280;8731;50.364;8.958;2023-08-21T19:22:20;100409.91;;;29.15;60.18
17230;BME280;8731;50.364;8.958;2023-08-21T19:26:43;100404.50;;;29.09;60.98
17230;BME280;8731;50.364;8.958;2023-08-21T19:31:09;100404.34;;;29.01;61.93
17230;BME280;8731;50.364;8.958;2023-08-21T19:35:33;100401.31;;;29.24;60.30
17230;BME280;8731;50.364;8.958;2023-08-21T19:39:56;100403.78;;;29.16;61.09
17230;BME280;8731;50.364;8.958;2023-08-21T19:44:18;100403.47;;;29.02;61.53
17230;BME280;8731;50.364;8.958;2023-08-21T19:48:41;100400.13;;;28.70;62.80
17230;BME280;8731;50.364;8.958;2023-08-21T19:53:05;100411.25;;;28.26;64.70
17230;BME280;8731;50.364;8.958;2023-08-21T19:57:27;100410.75;;;28.40;64.16
17230;BME280;8731;50.364;8.958;2023-08-21T20:01:49;100415.41;;;28.52;63.21
17230;BME280;8731;50.364;8.958;2023-08-21T20:06:12;100410.69;;;28.39;64.02
17230;BME280;8731;50.364;8.958;2023-08-21T20:10:39;100408.06;;;28.39;63.57
17230;BME280;8731;50.364;8.958;2023-08-21T20:15:02;100407.88;;;27.65;67.83
17230;BME280;8731;50.364;8.958;2023-08-21T20:19:26;100407.88;;;27.65;67.83
17230;BME280;8731;50.364;8.958;2023-08-21T20:23:49;100418.81;;;27.82;66.82
17230;BME280;8731;50.364;8.958;2023-08-21T20:28:13;100416.25;;;27.85;66.29
17230;BME280;8731;50.364;8.958;2023-08-21T20:32:36;100422.25;;;27.81;66.13
17230;BME280;8731;50.364;8.958;2023-08-21T20:36:58;100421.81;;;27.06;70.66
17230;BME280;8731;50.364;8.958;2023-08-21T20:41:21;100418.44;;;27.10;69.99
17230;BME280;8731;50.364;8.958;2023-08-21T20:45:44;100414.31;;;27.18;69.08
17230;BME280;8731;50.364;8.958;2023-08-21T20:50:07;100425.72;;;26.93;70.06
17230;BME280;8731;50.364;8.958;2023-08-21T20:54:30;100417.38;;;27.03;69.13
17230;BME280;8731;50.364;8.958;2023-08-21T20:58:53;100408.06;;;27.13;67.55
17230;BME280;8731;50.364;8.958;2023-08-21T21:03:17;100410.22;;;26.71;70.46
17230;BME280;8731;50.364;8.958;2023-08-21T21:07:39;100413.47;;;26.64;70.92
17230;BME280;8731;50.364;8.958;2023-08-21T21:12:03;100414.66;;;26.73;69.63
17230;BME280;8731;50.364;8.958;2023-08-21T21:16:27;100413.22;;;26.04;74.80
17230;BME280;8731;50.364;8.958;2023-08-21T21:20:51;100425.59;;;26.35;71.66
17230;BME280;8731;50.364;8.958;2023-08-21T21:25:13;100419.72;;;26.42;70.96
17230;BME280;8731;50.364;8.958;2023-08-21T21:29:36;100418.19;;;26.48;70.54
17230;BME280;8731;50.364;8.958;2023-08-21T21:33:59;100416.94;;;26.36;71.58
17230;BME280;8731;50.364;8.958;2023-08-21T21:38:23;100418.16;;;25.96;74.25
17230;BME280;8731;50.364;8.958;2023-08-21T21:42:47;100415.34;;;25.90;73.87
17230;BME280;8731;50.364;8.958;2023-08-21T21:47:09;100405.81;;;25.44;76.30
17230;BME280;8731;50.364;8.958;2023-08-21T21:51:31;100411.38;;;25.77;73.36
17230;BME280;8731;50.364;8.958;2023-08-21T21:55:55;100404.47;;;25.31;76.20
17230;BME280;8731;50.364;8.958;2023-08-21T22:00:18;100408.59;;;25.25;77.31
17230;BME280;8731;50.364;8.958;2023-08-21T22:04:40;100400.44;;;25.16;76.85
17230;BME280;8731;50.364;8.958;2023-08-21T22:09:03;100404.72;;;25.37;75.29
17230;BME280;8731;50.364;8.958;2023-08-21T22:13:27;100407.72;;;25.48;73.87
17230;BME280;8731;50.364;8.958;2023-08-21T22:17:49;100404.84;;;25.40;74.48
17230;BME280;8731;50.364;8.958;2023-08-21T22:22:12;100396.75;;;24.88;77.86
17230;BME280;8731;50.364;8.958;2023-08-21T22:26:34;100406.59;;;25.18;75.49
17230;BME280;8731;50.364;8.958;2023-08-21T22:30:59;100407.41;;;25.17;74.88
17230;BME280;8731;50.364;8.958;2023-08-21T22:35:21;100405.38;;;24.87;77.76
17230;BME280;8731;50.364;8.958;2023-08-21T22:39:43;100407.28;;;24.91;76.39
17230;BME280;8731;50.364;8.958;2023-08-21T22:44:06;100401.94;;;24.66;78.44
17230;BME280;8731;50.364;8.958;2023-08-21T22:48:31;100407.25;;;24.69;78.29
17230;BME280;8731;50.364;8.958;2023-08-21T22:52:54;100406.81;;;24.58;78.19
17230;BME280;8731;50.364;8.958;2023-08-21T22:57:18;100405.41;;;24.25;81.20
17230;BME280;8731;50.364;8.958;2023-08-21T23:01:40;100401.47;;;24.55;77.88
17230;BME280;8731;50.364;8.958;2023-08-21T23:06:05;100399.00;;;24.16;80.83
17230;BME280;8731;50.364;8.958;2023-08-21T23:10:27;100389.69;;;24.42;78.15
17230;BME280;8731;50.364;8.958;2023-08-21T23:14:50;100400.22;;;24.25;79.16